createdAt,value
2018-12-16T00:01:41.788Z,27.33
2018-12-16T00:04:10.258Z,24.80
2018-12-16T00:06:38.979Z,26.83
2018-12-16T00:09:07.698Z,27.63
2018-12-16T00:11:36.502Z,25.53
2018-12-16T00:14:04.939Z,28.27
2018-12-16T00:16:33.271Z,25.97
2018-12-16T00:19:01.624Z,26.13
2018-12-16T00:21:30.788Z,26.23
2018-12-16T00:23:59.912Z,28.67
2018-12-16T00:26:38.726Z,27.03
2018-12-16T00:29:07.328Z,26.97
2018-12-16T00:31:36.123Z,26.53
2018-12-16T00:34:04.699Z,25.13
2018-12-16T00:36:33.329Z,28.33
2018-12-16T00:39:01.966Z,27.23
2018-12-16T00:41:30.430Z,28.00
2018-12-16T00:43:59.631Z,26.47
2018-12-16T00:46:28.195Z,27.43
2018-12-16T00:48:56.774Z,26.33
2018-12-16T00:51:25.214Z,30.13
2018-12-16T00:53:53.563Z,26.13
2018-12-16T00:56:22.071Z,27.87
2018-12-16T00:58:50.653Z,28.73
2018-12-16T01:01:20.301Z,30.40
2018-12-16T01:03:49.578Z,25.23
2018-12-16T01:06:18.538Z,32.30
2018-12-16T01:08:46.896Z,27.10
2018-12-16T01:11:15.564Z,29.83
2018-12-16T01:13:44.170Z,29.20
2018-12-16T01:16:12.666Z,27.30
2018-12-16T01:18:41.785Z,29.93
2018-12-16T01:21:10.168Z,25.93
2018-12-16T01:23:39.010Z,26.73
2018-12-16T01:26:07.377Z,27.87
2018-12-16T01:28:36.221Z,28.07
2018-12-16T01:31:04.831Z,30.20
2018-12-16T01:33:33.299Z,28.93
2018-12-16T01:36:01.642Z,25.13
2018-12-16T01:38:30.141Z,27.47
2018-12-16T01:40:58.842Z,30.33
2018-12-16T01:43:27.300Z,29.80
2018-12-16T01:45:55.890Z,30.37
2018-12-16T01:48:24.576Z,26.63
2018-12-16T01:50:52.908Z,24.77
2018-12-16T01:53:21.230Z,27.33
2018-12-16T01:55:49.675Z,28.20
2018-12-16T01:58:18.436Z,27.57
2018-12-16T02:00:47.432Z,27.90
2018-12-16T02:03:15.925Z,29.47
2018-12-16T02:05:44.391Z,26.60
2018-12-16T02:08:12.966Z,26.47
2018-12-16T02:10:41.747Z,27.90
2018-12-16T02:13:10.100Z,25.47
2018-12-16T02:15:38.416Z,30.03
2018-12-16T02:18:07.441Z,24.97
2018-12-16T02:20:35.753Z,25.37
2018-12-16T02:23:04.435Z,24.80
2018-12-16T02:25:33.275Z,29.40
2018-12-16T02:28:01.669Z,26.20
2018-12-16T02:30:30.191Z,27.53
2018-12-16T02:32:58.531Z,25.80
2018-12-16T02:35:26.975Z,29.53
2018-12-16T02:37:55.502Z,27.23
2018-12-16T02:40:24.700Z,26.40
2018-12-16T02:42:53.056Z,27.73
2018-12-16T02:45:21.367Z,28.37
2018-12-16T02:47:50.177Z,27.13
2018-12-16T02:50:18.549Z,27.03
2018-12-16T02:52:47.883Z,25.93
2018-12-16T02:55:16.451Z,26.70
2018-12-16T02:57:45.189Z,24.53
2018-12-16T03:00:13.619Z,27.10
2018-12-16T03:02:41.987Z,25.37
2018-12-16T03:05:10.883Z,27.33
2018-12-16T03:07:39.281Z,25.77
2018-12-16T03:10:07.635Z,30.40
2018-12-16T03:12:35.931Z,22.97
2018-12-16T03:15:04.807Z,27.37
2018-12-16T03:17:33.192Z,25.70
2018-12-16T03:20:01.657Z,27.07
2018-12-16T03:22:30.051Z,27.57
2018-12-16T03:24:58.685Z,25.10
2018-12-16T03:27:27.079Z,22.30
2018-12-16T03:29:55.749Z,26.73
2018-12-16T03:32:24.199Z,28.20
2018-12-16T03:34:52.619Z,24.00
2018-12-16T03:37:20.999Z,22.17
2018-12-16T03:39:49.338Z,23.37
2018-12-16T03:42:17.611Z,24.67
2018-12-16T03:44:45.925Z,24.03
2018-12-16T03:47:14.986Z,24.10
2018-12-16T03:49:43.306Z,24.20
2018-12-16T03:52:11.666Z,24.30
2018-12-16T03:54:40.028Z,24.30
2018-12-16T03:57:08.618Z,22.30
2018-12-16T03:59:37.151Z,25.03
2018-12-16T04:02:05.686Z,22.60
2018-12-16T04:04:34.239Z,24.90
2018-12-16T04:07:02.797Z,23.47
2018-12-16T04:09:31.248Z,23.40
2018-12-16T04:11:59.997Z,23.57
2018-12-16T04:14:28.508Z,23.43
2018-12-16T04:16:56.912Z,24.03
2018-12-16T04:19:25.201Z,23.83
2018-12-16T04:21:59.114Z,22.23
2018-12-16T04:24:27.505Z,23.70
2018-12-16T04:26:55.965Z,20.13
2018-12-16T04:29:24.277Z,22.30
2018-12-16T04:31:53.383Z,25.83
2018-12-16T04:34:21.981Z,21.77
2018-12-16T04:36:50.479Z,22.40
2018-12-16T04:39:18.863Z,24.17
2018-12-16T04:41:47.339Z,23.80
2018-12-16T04:44:15.657Z,25.00
2018-12-16T04:46:44.175Z,23.93
2018-12-16T04:49:12.537Z,22.63
2018-12-16T04:51:40.949Z,24.53
2018-12-16T04:54:09.303Z,24.30
2018-12-16T04:56:37.720Z,24.50
2018-12-16T04:59:06.062Z,23.63
2018-12-16T05:01:34.555Z,25.47
2018-12-16T05:04:03.470Z,22.87
2018-12-16T05:06:31.924Z,23.20
2018-12-16T05:09:00.346Z,24.03
2018-12-16T05:11:28.810Z,23.10
2018-12-16T05:13:57.407Z,25.47
2018-12-16T05:16:26.484Z,23.33
2018-12-16T05:18:54.907Z,22.33
2018-12-16T05:21:23.221Z,24.70
2018-12-16T05:23:51.636Z,26.73
2018-12-16T05:26:20.047Z,26.47
2018-12-16T05:28:48.523Z,27.27
2018-12-16T05:31:16.891Z,22.43
2018-12-16T05:33:45.299Z,25.07
2018-12-16T05:36:13.631Z,22.00
2018-12-16T05:38:41.934Z,24.60
2018-12-16T05:41:10.467Z,21.10
2018-12-16T05:43:38.983Z,23.73
2018-12-16T05:46:07.553Z,24.33
2018-12-16T05:48:35.839Z,26.23
2018-12-16T05:51:04.558Z,22.40
2018-12-16T05:53:32.978Z,23.93
2018-12-16T05:56:01.418Z,26.40
2018-12-16T05:58:29.835Z,25.80
2018-12-16T06:00:58.449Z,24.20
2018-12-16T06:03:26.848Z,25.00
2018-12-16T06:05:55.244Z,24.37
2018-12-16T06:08:23.692Z,24.63
2018-12-16T06:10:52.301Z,26.33
2018-12-16T06:13:20.867Z,27.77
2018-12-16T06:15:49.247Z,22.63
2018-12-16T06:18:17.602Z,24.70
2018-12-16T06:20:45.932Z,23.97
2018-12-16T06:23:18.386Z,22.20
2018-12-16T06:25:46.745Z,23.20
2018-12-16T06:28:15.372Z,23.50
2018-12-16T06:30:44.459Z,25.60
2018-12-16T06:33:12.919Z,26.63
2018-12-16T06:35:41.223Z,23.13
2018-12-16T06:38:10.133Z,26.80
2018-12-16T06:40:38.429Z,24.60
2018-12-16T06:43:06.769Z,24.27
2018-12-16T06:45:35.137Z,25.27
2018-12-16T06:48:03.477Z,22.50
2018-12-16T06:50:31.809Z,24.23
2018-12-16T06:53:00.235Z,23.57
2018-12-16T06:55:28.523Z,26.13
2018-12-16T06:57:56.843Z,25.13
2018-12-16T07:00:25.501Z,24.67
2018-12-16T07:02:54.682Z,25.67
2018-12-16T07:05:23.112Z,23.93
2018-12-16T07:07:52.571Z,24.77
2018-12-16T07:10:21.338Z,23.93
2018-12-16T07:12:49.752Z,24.13
2018-12-16T07:15:18.971Z,25.83
2018-12-16T07:17:47.297Z,26.53
2018-12-16T07:20:15.605Z,26.07
2018-12-16T07:22:43.938Z,25.80
2018-12-16T07:25:12.801Z,26.30
2018-12-16T07:27:41.117Z,29.87
2018-12-16T07:30:09.866Z,27.00
2018-12-16T07:32:38.434Z,30.23
2018-12-16T07:35:06.726Z,28.50
2018-12-16T07:37:35.214Z,27.93
2018-12-16T07:40:05.184Z,30.90
2018-12-16T07:42:33.592Z,29.90
2018-12-16T07:45:02.752Z,30.40
2018-12-16T07:47:31.098Z,28.90
2018-12-16T07:49:59.740Z,30.10
2018-12-16T07:52:28.897Z,33.23
2018-12-16T07:54:57.513Z,33.77
2018-12-16T07:57:25.940Z,31.10
2018-12-16T07:59:54.363Z,31.03
2018-12-16T08:02:22.881Z,36.80
2018-12-16T08:04:51.513Z,33.00
2018-12-16T08:07:20.089Z,36.87
2018-12-16T08:09:48.639Z,30.80
2018-12-16T08:12:17.335Z,37.50
2018-12-16T08:14:45.654Z,33.97
2018-12-16T08:17:13.973Z,35.83
2018-12-16T08:19:42.348Z,35.57
2018-12-16T08:22:10.811Z,35.93
2018-12-16T08:24:39.334Z,33.40
2018-12-16T08:27:07.706Z,34.60
2018-12-16T08:29:36.478Z,38.47
2018-12-16T08:32:04.951Z,39.27
2018-12-16T08:34:33.431Z,37.67
2018-12-16T08:37:01.847Z,36.60
2018-12-16T08:39:30.198Z,37.10
2018-12-16T08:41:58.730Z,34.77
2018-12-16T08:44:27.387Z,34.67
2018-12-16T08:46:55.839Z,36.20
2018-12-16T08:49:24.185Z,38.37
2018-12-16T08:51:52.718Z,36.03
2018-12-16T08:54:21.353Z,34.77
2018-12-16T08:56:49.785Z,34.60
2018-12-16T08:59:18.868Z,36.40
2018-12-16T09:01:47.293Z,35.60
2018-12-16T09:04:16.383Z,36.00
2018-12-16T09:06:45.097Z,36.87
2018-12-16T09:09:13.916Z,40.40
2018-12-16T09:11:42.243Z,37.33
2018-12-16T09:14:11.289Z,37.00
2018-12-16T09:16:39.593Z,39.17
2018-12-16T09:19:08.692Z,35.73
2018-12-16T09:21:37.032Z,36.70
2018-12-16T09:24:05.391Z,36.63
2018-12-16T09:26:33.813Z,37.20
2018-12-16T09:29:02.624Z,36.60
2018-12-16T09:31:31.007Z,40.97
2018-12-16T09:33:59.369Z,37.90
2018-12-16T09:36:27.710Z,35.63
2018-12-16T09:38:56.188Z,39.70
2018-12-16T09:41:24.873Z,39.97
2018-12-16T09:43:54.001Z,37.10
2018-12-16T09:46:22.809Z,34.70
2018-12-16T09:48:51.107Z,36.47
2018-12-16T09:51:19.727Z,38.97
2018-12-16T09:53:48.210Z,37.57
2018-12-16T09:56:17.445Z,35.57
2018-12-16T09:58:46.367Z,38.17
2018-12-16T10:01:14.779Z,40.13
2018-12-16T10:03:43.252Z,36.77
2018-12-16T10:06:11.927Z,40.40
2018-12-16T10:08:40.322Z,37.67
2018-12-16T10:11:08.742Z,40.10
2018-12-16T10:13:37.107Z,39.47
2018-12-16T10:16:05.601Z,41.47
2018-12-16T10:18:34.263Z,40.87
2018-12-16T10:21:02.593Z,42.17
2018-12-16T10:23:31.238Z,48.27
2018-12-16T10:25:59.964Z,41.87
2018-12-16T10:28:28.513Z,38.57
2018-12-16T10:30:56.788Z,38.30
2018-12-16T10:33:25.219Z,43.83
2018-12-16T10:35:53.629Z,36.47
2018-12-16T10:38:22.388Z,35.13
2018-12-16T10:40:50.703Z,36.60
2018-12-16T10:43:19.008Z,37.00
2018-12-16T10:45:47.308Z,37.63
2018-12-16T10:48:15.631Z,33.73
2018-12-16T10:50:44.175Z,35.67
2018-12-16T10:53:12.518Z,35.50
2018-12-16T10:55:40.880Z,40.13
2018-12-16T10:58:09.394Z,34.93
2018-12-16T11:00:43.241Z,37.27
2018-12-16T11:03:12.233Z,35.97
2018-12-16T11:05:40.932Z,36.90
2018-12-16T11:08:09.349Z,37.00
2018-12-16T11:10:38.216Z,33.07
2018-12-16T11:13:07.739Z,38.97
2018-12-16T11:15:36.929Z,39.00
2018-12-16T11:18:05.810Z,34.70
2018-12-16T11:20:34.275Z,36.87
2018-12-16T11:23:02.911Z,36.30
2018-12-16T11:25:31.600Z,38.97
2018-12-16T11:27:59.985Z,35.00
2018-12-16T11:30:28.350Z,36.47
2018-12-16T11:32:57.435Z,35.13
2018-12-16T11:35:25.767Z,37.43
2018-12-16T11:37:54.155Z,32.57
2018-12-16T11:40:22.722Z,35.97
2018-12-16T11:42:51.079Z,35.60
2018-12-16T11:45:19.487Z,33.50
2018-12-16T11:47:48.231Z,33.70
2018-12-16T11:50:16.859Z,34.80
2018-12-16T11:52:45.476Z,34.67
2018-12-16T11:55:14.021Z,35.87
2018-12-16T11:57:42.660Z,35.03
2018-12-16T12:00:11.212Z,37.93
2018-12-16T12:02:40.514Z,35.83
2018-12-16T12:05:09.381Z,35.37
2018-12-16T12:07:37.985Z,35.03
2018-12-16T12:10:06.942Z,33.70
2018-12-16T12:12:35.989Z,35.13
2018-12-16T12:15:05.013Z,32.57
2018-12-16T12:17:33.518Z,33.63
2018-12-16T12:20:01.839Z,32.77
2018-12-16T12:22:30.365Z,33.13
2018-12-16T12:24:58.806Z,33.97
2018-12-16T12:27:27.518Z,32.90
2018-12-16T12:29:56.022Z,33.77
2018-12-16T12:32:24.928Z,34.80
2018-12-16T12:34:53.474Z,39.17
2018-12-16T12:37:21.966Z,33.70
2018-12-16T12:39:50.548Z,33.17
2018-12-16T12:42:18.839Z,34.90
2018-12-16T12:44:47.157Z,32.33
2018-12-16T12:47:15.715Z,34.20
2018-12-16T12:49:45.128Z,33.47
2018-12-16T12:52:13.861Z,32.17
2018-12-16T12:54:42.273Z,33.50
2018-12-16T12:57:10.723Z,31.47
2018-12-16T12:59:39.161Z,31.27
2018-12-16T13:02:07.794Z,33.47
2018-12-16T13:04:36.579Z,33.87
2018-12-16T13:07:05.333Z,33.80
2018-12-16T13:09:33.798Z,33.53
2018-12-16T13:12:02.384Z,35.93
2018-12-16T13:14:31.203Z,35.80
2018-12-16T13:16:59.576Z,33.57
2018-12-16T13:19:29.661Z,34.47
2018-12-16T13:21:58.696Z,31.13
2018-12-16T13:24:27.012Z,33.33
2018-12-16T13:26:55.657Z,34.77
2018-12-16T13:29:24.075Z,34.03
2018-12-16T13:31:52.421Z,33.30
2018-12-16T13:34:20.968Z,33.90
2018-12-16T13:36:49.380Z,33.27
2018-12-16T13:39:17.883Z,34.70
2018-12-16T13:41:46.427Z,36.20
2018-12-16T13:44:14.887Z,32.23
2018-12-16T13:46:43.347Z,34.00
2018-12-16T13:49:11.623Z,34.40
2018-12-16T13:51:40.189Z,36.47
2018-12-16T13:54:08.847Z,34.47
2018-12-16T13:56:37.196Z,36.90
2018-12-16T13:59:05.481Z,33.27
2018-12-16T14:01:33.813Z,34.57
2018-12-16T14:04:02.354Z,39.70
2018-12-16T14:06:31.051Z,40.57
2018-12-16T14:09:00.231Z,38.90
2018-12-16T14:11:28.694Z,39.67
2018-12-16T14:13:57.038Z,38.30
2018-12-16T14:16:25.763Z,36.37
2018-12-16T14:18:55.527Z,38.37
2018-12-16T14:21:24.389Z,43.20
2018-12-16T14:23:52.967Z,37.87
2018-12-16T14:26:21.488Z,37.20
2018-12-16T14:28:50.048Z,38.30
2018-12-16T14:31:18.567Z,37.13
2018-12-16T14:33:47.578Z,40.33
2018-12-16T14:38:50.758Z,35.83
2018-12-16T14:41:19.312Z,38.37
2018-12-16T14:43:47.696Z,35.20
2018-12-16T14:46:16.203Z,39.77
2018-12-16T14:48:44.697Z,41.13
2018-12-16T14:51:13.068Z,36.70
2018-12-16T14:53:41.496Z,39.53
2018-12-16T14:56:10.559Z,37.63
2018-12-16T14:58:39.012Z,40.40
2018-12-16T15:01:07.507Z,38.07
2018-12-16T15:03:35.915Z,38.70
2018-12-16T15:06:04.450Z,39.13
2018-12-16T15:08:32.969Z,40.40
2018-12-16T15:11:01.706Z,39.60
2018-12-16T15:13:30.129Z,42.83
2018-12-16T15:15:58.689Z,40.97
2018-12-16T15:18:27.846Z,42.53
2018-12-16T15:20:56.689Z,40.47
2018-12-16T15:23:25.375Z,38.47
2018-12-16T15:25:53.719Z,39.57
2018-12-16T15:28:22.825Z,38.27
2018-12-16T15:30:51.231Z,39.97
2018-12-16T15:33:19.726Z,40.80
2018-12-16T15:35:48.269Z,42.00
2018-12-16T15:38:16.587Z,40.73
2018-12-16T15:40:45.072Z,41.20
2018-12-16T15:43:13.359Z,41.93
2018-12-16T15:45:42.265Z,43.87
2018-12-16T15:48:10.709Z,38.90
2018-12-16T15:50:39.104Z,38.43
2018-12-16T15:53:07.774Z,40.20
2018-12-16T15:55:36.151Z,39.20
2018-12-16T15:58:04.600Z,40.67
2018-12-16T16:00:33.116Z,41.97
2018-12-16T16:03:02.129Z,39.70
2018-12-16T16:05:30.583Z,42.33
2018-12-16T16:07:59.068Z,37.50
2018-12-16T16:10:27.724Z,38.43
2018-12-16T16:12:56.025Z,41.07
2018-12-16T16:15:24.407Z,39.40
2018-12-16T16:17:54.446Z,43.53
2018-12-16T16:20:22.821Z,38.73
2018-12-16T16:22:51.393Z,38.97
2018-12-16T16:25:19.716Z,39.50
2018-12-16T16:27:48.195Z,38.23
2018-12-16T16:30:16.626Z,43.63
2018-12-16T16:32:44.952Z,42.47
2018-12-16T16:35:13.225Z,45.47
2018-12-16T16:37:41.552Z,44.23
2018-12-16T16:40:09.859Z,41.43
2018-12-16T16:42:38.236Z,42.23
2018-12-16T16:45:06.952Z,46.20
2018-12-16T16:47:35.397Z,46.13
2018-12-16T16:50:05.760Z,42.17
2018-12-16T16:52:34.265Z,41.53
2018-12-16T16:55:02.832Z,42.17
2018-12-16T16:57:31.229Z,43.10
2018-12-16T16:59:59.783Z,45.23
2018-12-16T17:02:28.546Z,44.33
2018-12-16T17:04:56.971Z,43.27
2018-12-16T17:07:25.453Z,45.17
2018-12-16T17:09:53.914Z,44.07
2018-12-16T17:12:22.474Z,43.83
2018-12-16T17:14:50.944Z,47.20
2018-12-16T17:17:19.449Z,44.87
2018-12-16T17:19:48.558Z,43.40
2018-12-16T17:22:17.212Z,43.03
2018-12-16T17:24:45.751Z,46.17
2018-12-16T17:27:14.342Z,48.93
2018-12-16T17:29:42.995Z,43.13
2018-12-16T17:32:11.469Z,44.80
2018-12-16T17:34:40.260Z,54.00
2018-12-16T17:37:08.673Z,48.07
2018-12-16T17:39:37.321Z,46.73
2018-12-16T17:42:05.840Z,47.27
2018-12-16T17:44:34.566Z,52.17
2018-12-16T17:47:02.974Z,56.97
2018-12-16T17:49:31.388Z,50.30
2018-12-16T17:51:59.723Z,50.90
2018-12-16T17:54:28.636Z,50.20
2018-12-16T17:56:57.006Z,51.73
2018-12-16T17:59:25.713Z,54.17
2018-12-16T18:01:54.582Z,55.83
2018-12-16T18:04:23.399Z,53.47
2018-12-16T18:06:51.887Z,55.20
2018-12-16T18:09:20.369Z,55.83
2018-12-16T18:11:49.084Z,57.33
2018-12-16T18:14:17.574Z,54.47
2018-12-16T18:16:46.027Z,57.50
2018-12-16T18:19:14.717Z,67.83
2018-12-16T18:21:49.145Z,54.97
2018-12-16T18:24:17.581Z,56.53
2018-12-16T18:26:47.024Z,58.47
2018-12-16T18:29:18.934Z,56.27
2018-12-16T18:31:47.695Z,57.87
2018-12-16T18:34:16.425Z,56.87
2018-12-16T18:36:45.014Z,56.67
2018-12-16T18:39:13.626Z,56.30
2018-12-16T18:41:42.335Z,56.57
2018-12-16T18:44:11.130Z,57.13
2018-12-16T18:46:39.480Z,51.40
2018-12-16T18:49:08.037Z,50.30
2018-12-16T18:51:37.039Z,53.10
2018-12-16T18:54:06.066Z,49.97
2018-12-16T18:56:35.084Z,55.83
2018-12-16T18:59:03.599Z,50.83
2018-12-16T19:01:32.537Z,52.40
2018-12-16T19:04:01.142Z,54.70
2018-12-16T19:06:30.468Z,54.40
2018-12-16T19:09:00.429Z,48.20
2018-12-16T19:11:29.145Z,48.23
2018-12-16T19:13:57.488Z,46.83
2018-12-16T19:16:26.099Z,55.17
2018-12-16T19:18:55.007Z,51.67
2018-12-16T19:21:23.838Z,50.00
2018-12-16T19:23:52.425Z,53.67
2018-12-16T19:26:20.973Z,57.07
2018-12-16T19:28:49.369Z,58.37
2018-12-16T19:31:17.689Z,56.67
2018-12-16T19:33:46.019Z,57.40
2018-12-16T19:36:15.248Z,56.73
2018-12-16T19:38:43.903Z,55.97
2018-12-16T19:41:12.677Z,51.00
2018-12-16T19:43:41.018Z,49.60
2018-12-16T19:46:09.977Z,46.10
2018-12-16T19:48:38.469Z,51.47
2018-12-16T19:51:07.440Z,51.23
2018-12-16T19:53:35.764Z,50.17
2018-12-16T19:56:04.277Z,49.43
2018-12-16T19:58:33.344Z,51.37
2018-12-16T20:01:01.891Z,52.90
2018-12-16T20:03:32.755Z,51.43
2018-12-16T20:06:06.692Z,53.73
2018-12-16T20:08:35.942Z,49.83
2018-12-16T20:11:04.296Z,48.87
2018-12-16T20:13:33.076Z,51.93
2018-12-16T20:16:01.708Z,52.37
2018-12-16T20:18:31.933Z,51.40
2018-12-16T20:21:00.417Z,49.87
2018-12-16T20:23:28.946Z,48.80
2018-12-16T20:25:57.476Z,58.50
2018-12-16T20:28:25.844Z,49.77
2018-12-16T20:30:54.461Z,55.83
2018-12-16T20:33:23.518Z,49.87
2018-12-16T20:35:52.184Z,48.90
2018-12-16T20:38:21.360Z,50.20
2018-12-16T20:40:50.285Z,55.40
2018-12-16T20:43:19.311Z,46.33
2018-12-16T20:45:48.051Z,50.40
2018-12-16T20:48:16.507Z,53.47
2018-12-16T20:50:45.013Z,51.27
2018-12-16T20:53:13.570Z,56.43
2018-12-16T20:55:42.645Z,51.97
2018-12-16T20:58:11.200Z,58.87
2018-12-16T21:00:39.689Z,53.50
2018-12-16T21:03:08.552Z,66.70
2018-12-16T21:05:37.324Z,58.80
2018-12-16T21:08:05.739Z,62.40
2018-12-16T21:10:34.851Z,70.67
2018-12-16T21:13:08.619Z,66.33
2018-12-16T21:15:42.496Z,63.63
2018-12-16T21:18:16.873Z,60.10
2018-12-16T21:20:45.313Z,64.37
2018-12-16T21:23:14.361Z,57.57
2018-12-16T21:25:43.138Z,57.57
2018-12-16T21:28:11.839Z,59.77
2018-12-16T21:30:40.397Z,61.43
2018-12-16T21:33:08.838Z,61.17
2018-12-16T21:35:37.481Z,75.27
2018-12-16T21:38:05.881Z,67.17
2018-12-16T21:40:34.367Z,66.23
2018-12-16T21:43:02.860Z,70.07
2018-12-16T21:45:31.657Z,66.10
2018-12-16T21:48:00.638Z,66.73
2018-12-16T21:50:29.742Z,66.90
2018-12-16T21:52:58.264Z,66.37
2018-12-16T21:55:26.776Z,64.73
2018-12-16T21:57:55.478Z,71.83
2018-12-16T22:00:24.062Z,71.30
2018-12-16T22:02:52.421Z,68.73
2018-12-16T22:08:07.506Z,65.10
2018-12-16T22:10:35.887Z,57.37
2018-12-16T22:13:04.363Z,67.77
2018-12-16T22:15:33.839Z,64.93
2018-12-16T22:18:02.353Z,70.13
2018-12-16T22:20:30.663Z,66.97
2018-12-16T22:22:59.071Z,71.03
2018-12-16T22:25:27.522Z,70.93
2018-12-16T22:27:56.022Z,73.17
2018-12-16T22:30:24.842Z,71.47
2018-12-16T22:32:53.568Z,72.43
2018-12-16T22:35:22.097Z,76.27
2018-12-16T22:37:50.516Z,82.70
2018-12-16T22:40:19.238Z,78.33
2018-12-16T22:42:47.811Z,90.63
2018-12-16T22:45:16.407Z,88.83
2018-12-16T22:47:44.912Z,95.73
2018-12-16T22:50:13.654Z,100.47
2018-12-16T22:52:42.122Z,108.43
2018-12-16T22:55:11.885Z,130.17
2018-12-16T22:57:46.936Z,124.37
2018-12-16T23:00:13.073Z,139.10
2018-12-16T23:02:41.441Z,121.40
2018-12-16T23:05:10.490Z,144.50
2018-12-16T23:07:38.906Z,128.23
2018-12-16T23:10:08.181Z,131.17
2018-12-16T23:12:36.520Z,123.53
2018-12-16T23:15:07.167Z,145.07
2018-12-16T23:17:35.510Z,137.83
2018-12-16T23:20:10.827Z,142.70
2018-12-16T23:22:39.109Z,122.40
2018-12-16T23:25:08.027Z,133.00
2018-12-16T23:27:36.429Z,120.30
2018-12-16T23:30:06.649Z,129.73
2018-12-16T23:32:35.070Z,104.23
2018-12-16T23:35:03.695Z,117.50
2018-12-16T23:37:32.338Z,116.43
2018-12-16T23:40:00.851Z,93.90
2018-12-16T23:42:29.278Z,112.50
2018-12-16T23:44:57.734Z,92.23
2018-12-16T23:47:26.219Z,100.53
2018-12-16T23:49:54.671Z,87.87
2018-12-16T23:52:23.002Z,76.50
2018-12-16T23:54:51.302Z,84.23
2018-12-16T23:57:19.623Z,77.57
2018-12-16T23:59:48.334Z,73.33
